Time;durP1;ratioP1;P1;durP2;ratioP2;P2;SDS_P1;SDS_P2;PMS_P1;PMS_P2;Temp;Humidity;BMP_temperature;BMP_pressure;BME280_temperature;BME280_humidity;BME280_pressure;Samples;Min_cycle;Max_cycle;Signal;HPM_P1;HPM_P2
2022/07/15 00:02:20;;;;;;;13.05;2.25;;;;;;;20.13;100.00;102111.28;5074626;28;20168;-59
2022/07/15 00:04:45;;;;;;;14.98;1.70;;;;;;;20.23;100.00;102109.88;5073645;28;20033;-58
2022/07/15 00:07:12;;;;;;;8.80;2.83;;;;;;;19.15;100.00;102111.06;5072500;28;20037;-57
2022/07/15 00:12:23;;;;;;;9.87;2.27;;;;;;;19.04;100.00;102113.44;5071386;28;20294;-58
2022/07/15 00:14:49;;;;;;;4.53;1.73;;;;;;;19.00;100.00;102116.78;5071231;28;20273;-58
2022/07/15 00:17:14;;;;;;;7.13;1.70;;;;;;;18.95;100.00;102112.03;5068537;28;20045;-60
2022/07/15 00:19:40;;;;;;;;;;;;;;;19.03;100.00;102119.91;5072300;28;20093;-58
2022/07/15 00:22:06;;;;;;;8.03;1.93;;;;;;;19.03;100.00;102114.47;5076736;28;19919;-59
2022/07/15 00:24:32;;;;;;;8.57;1.73;;;;;;;18.87;100.00;102099.56;5071489;28;20045;-59
2022/07/15 00:26:57;;;;;;;7.00;1.60;;;;;;;18.62;100.00;102113.91;5074857;28;20093;-57
2022/07/15 00:29:25;;;;;;;9.23;1.77;;;;;;;18.71;100.00;102105.53;5073003;28;20045;-60
2022/07/15 00:31:51;;;;;;;12.73;2.03;;;;;;;18.58;100.00;102104.56;5074221;28;20036;-59
2022/07/15 00:34:16;;;;;;;8.07;2.27;;;;;;;18.69;100.00;102105.75;5069950;28;20282;-59
2022/07/15 00:36:42;;;;;;;9.23;2.55;;;;;;;18.71;100.00;102103.66;5070628;28;20292;-59
2022/07/15 00:39:09;;;;;;;6.38;2.58;;;;;;;18.56;100.00;102098.53;5071503;28;20037;-60
2022/07/15 00:41:41;;;;;;;23.53;3.67;;;;;;;18.75;100.00;102096.75;5073578;28;20033;-60
2022/07/15 00:44:07;;;;;;;11.43;3.03;;;;;;;18.88;100.00;102100.38;5066732;28;20274;-59
2022/07/15 00:46:35;;;;;;;10.90;2.78;;;;;;;18.55;100.00;102096.03;5073924;28;20303;-59
2022/07/15 00:49:03;;;;;;;17.63;3.60;;;;;;;18.58;100.00;102101.03;5075311;28;20093;-59
2022/07/15 00:51:35;;;;;;;8.87;2.60;;;;;;;18.65;100.00;102096.38;5071227;28;20266;-59
2022/07/15 00:54:02;;;;;;;13.47;2.93;;;;;;;18.57;100.00;102105.63;5071650;28;20269;-57
2022/07/15 00:56:30;;;;;;;11.20;2.40;;;;;;;18.60;100.00;102099.78;5075308;28;20297;-59
2022/07/15 00:58:57;;;;;;;11.33;2.50;;;;;;;18.52;100.00;102099.19;5070582;28;20262;-59
2022/07/15 01:01:22;;;;;;;7.30;2.00;;;;;;;18.40;100.00;102104.47;5069971;28;20269;-59
2022/07/15 01:03:49;;;;;;;14.13;2.70;;;;;;;18.22;100.00;102099.75;5071054;28;20029;-60
2022/07/15 01:06:15;;;;;;;11.70;2.40;;;;;;;18.52;100.00;102102.72;5073862;28;20039;-58
2022/07/15 01:08:41;;;;;;;6.82;2.22;;;;;;;18.40;100.00;102104.47;5073945;28;20273;-59
2022/07/15 01:11:06;;;;;;;10.83;4.03;;;;;;;18.37;100.00;102097.59;5076888;28;20032;-59
2022/07/15 01:13:32;;;;;;;11.63;2.65;;;;;;;18.42;100.00;102103.19;5072416;28;20064;-59
2022/07/15 01:15:58;;;;;;;6.63;2.50;;;;;;;18.28;100.00;102094.31;5076855;28;20052;-59
2022/07/15 01:18:24;;;;;;;8.23;4.00;;;;;;;18.32;100.00;102098.25;5073092;28;20063;-59
2022/07/15 01:20:50;;;;;;;7.60;2.38;;;;;;;18.42;100.00;102095.06;5076049;28;20880;-59
2022/07/15 01:23:17;;;;;;;10.70;2.57;;;;;;;18.30;100.00;102097.63;5077784;28;20047;-60
2022/07/15 01:25:49;;;;;;;15.40;2.93;;;;;;;18.01;100.00;102097.16;5079287;28;20288;-60
2022/07/15 01:28:15;;;;;;;;;;;;;;;18.20;100.00;102095.41;5075981;28;20282;-60
2022/07/15 01:30:40;;;;;;;21.20;3.43;;;;;;;18.27;100.00;102089.94;5076962;28;19939;-59
2022/07/15 01:33:11;;;;;;;10.37;2.37;;;;;;;18.20;100.00;102095.41;5074382;28;20029;-60
2022/07/15 01:35:37;;;;;;;10.02;3.28;;;;;;;18.17;100.00;102095.81;5075527;28;20278;-59
2022/07/15 01:38:03;;;;;;;11.23;2.97;;;;;;;18.17;100.00;102097.72;5076985;28;20088;-59
2022/07/15 01:40:29;;;;;;;11.30;2.83;;;;;;;18.14;100.00;102095.44;5080023;28;20032;-59
2022/07/15 01:42:55;;;;;;;9.35;2.88;;;;;;;18.07;100.00;102095.47;5077491;28;20104;-59
2022/07/15 01:45:21;;;;;;;13.43;2.63;;;;;;;18.04;100.00;102102.13;5073750;28;20056;-58
2022/07/15 01:47:50;;;;;;;12.57;2.73;;;;;;;17.79;100.00;102110.13;5076362;28;20092;-59
2022/07/15 01:50:38;;;;;;;10.93;3.00;;;;;;;17.87;100.00;102104.47;5075648;28;20270;-60
2022/07/15 01:53:14;;;;;;;13.40;3.00;;;;;;;17.94;100.00;102111.72;5076849;28;20270;-59
2022/07/15 01:55:40;;;;;;;14.80;2.90;;;;;;;17.95;100.00;102110.69;5075664;28;20284;-60
2022/07/15 01:58:06;;;;;;;11.43;2.17;;;;;;;17.85;100.00;102111.97;5076173;28;20052;-59
2022/07/15 02:00:31;;;;;;;11.93;3.53;;;;;;;17.95;100.00;102110.69;5080243;28;20063;-60
2022/07/15 02:02:57;;;;;;;11.38;3.88;;;;;;;17.90;100.00;102112.16;5077910;28;20261;-60
2022/07/15 02:05:23;;;;;;;9.87;3.00;;;;;;;17.88;100.00;102111.53;5073270;28;20029;-60
2022/07/15 02:07:50;;;;;;;11.13;2.90;;;;;;;17.87;100.00;102118.00;5076260;28;20036;-61
2022/07/15 02:10:17;;;;;;;10.53;2.80;;;;;;;17.61;100.00;102108.91;5076998;28;20277;-59
2022/07/15 02:12:45;;;;;;;14.57;3.40;;;;;;;17.64;100.00;102113.06;5075783;28;20286;-59
2022/07/15 02:15:12;;;;;;;14.53;3.07;;;;;;;17.60;100.00;102114.53;5073112;28;20286;-59
2022/07/15 02:17:50;;;;;;;14.63;3.13;;;;;;;17.56;100.00;102116.00;5074459;28;20254;-60
2022/07/15 02:20:15;;;;;;;7.40;3.97;;;;;;;17.60;100.00;102118.06;5074225;28;20270;-60
2022/07/15 02:22:41;;;;;;;11.67;2.53;;;;;;;17.50;100.00;102117.66;5076834;28;20276;-59
2022/07/15 02:25:07;;;;;;;12.05;3.50;;;;;;;17.30;100.00;102113.13;5071429;28;20055;-59
2022/07/15 02:27:32;;;;;;;11.60;3.35;;;;;;;17.43;100.00;102112.28;5074465;28;20048;-59
2022/07/15 02:29:58;;;;;;;17.42;4.13;;;;;;;17.45;100.00;102110.22;5075394;28;20048;-59
2022/07/15 02:32:30;;;;;;;10.63;3.30;;;;;;;17.46;100.00;102111.03;5070660;28;20029;-60
2022/07/15 02:34:58;;;;;;;7.50;3.20;;;;;;;17.23;100.00;102115.00;5091462;28;20292;-59
2022/07/15 02:37:24;;;;;;;15.03;3.70;;;;;;;16.97;100.00;102115.81;5090255;28;20262;-58
2022/07/15 02:39:51;;;;;;;11.52;3.30;;;;;;;16.79;100.00;102117.25;5055331;28;20262;-60
2022/07/15 02:42:18;;;;;;;13.07;3.30;;;;;;;16.91;100.00;102112.06;5073153;28;20079;-59
2022/07/15 02:44:44;;;;;;;8.85;2.95;;;;;;;16.93;100.00;102118.09;5071861;28;20278;-60
2022/07/15 02:47:10;;;;;;;14.43;3.60;;;;;;;17.09;100.00;102110.66;5073887;28;20059;-59
2022/07/15 02:49:38;;;;;;;12.47;3.27;;;;;;;17.11;100.00;102119.38;5072092;28;20273;-59
2022/07/15 02:52:04;;;;;;;13.10;3.67;;;;;;;17.13;100.00;102114.59;5075763;28;20284;-59
2022/07/15 02:54:36;;;;;;;11.37;3.10;;;;;;;17.11;100.00;102124.78;5072970;28;20495;-60
2022/07/15 02:57:03;;;;;;;7.40;2.77;;;;;;;17.01;100.00;102120.59;5074080;28;20356;-60
2022/07/15 02:59:28;;;;;;;12.07;3.33;;;;;;;17.01;100.00;102123.31;5075287;28;20258;-61
2022/07/15 03:01:56;;;;;;;10.20;3.07;;;;;;;16.90;100.00;102123.91;5074325;28;20083;-59
2022/07/15 03:04:22;;;;;;;8.57;3.25;;;;;;;16.93;100.00;102123.50;5069023;28;20277;-59
2022/07/15 03:06:48;;;;;;;13.60;3.57;;;;;;;17.00;100.00;102126.25;5074399;28;20280;-57
2022/07/15 03:09:14;;;;;;;9.03;3.07;;;;;;;16.92;100.00;102133.47;5073937;28;20085;-59
2022/07/15 03:11:40;;;;;;;11.63;2.97;;;;;;;16.97;100.00;102138.25;5073835;28;20269;-59
2022/07/15 03:14:06;;;;;;;9.40;3.40;;;;;;;16.88;100.00;102132.22;5073857;28;20041;-59
2022/07/15 03:16:31;;;;;;;16.05;3.10;;;;;;;16.91;100.00;102136.38;5075576;28;20037;-61
2022/07/15 03:18:58;;;;;;;15.65;3.70;;;;;;;16.97;100.00;102132.03;5075172;28;20035;-59
2022/07/15 03:21:24;;;;;;;10.75;3.50;;;;;;;16.82;100.00;102138.44;5072150;28;20051;-59
2022/07/15 03:23:49;;;;;;;16.60;3.72;;;;;;;17.01;100.00;102139.53;5073289;28;20034;-60
2022/07/15 03:26:15;;;;;;;12.55;3.25;;;;;;;17.08;100.00;102138.72;5074055;28;20036;-60
2022/07/15 03:28:41;;;;;;;10.23;3.23;;;;;;;16.82;100.00;102143.00;5077403;28;20029;-59
2022/07/15 03:31:06;;;;;;;13.27;3.00;;;;;;;17.11;100.00;102141.00;5077242;28;20033;-60
2022/07/15 03:33:32;;;;;;;11.40;3.10;;;;;;;16.97;100.00;102140.94;5072723;28;20099;-59
2022/07/15 03:35:57;;;;;;;13.10;3.07;;;;;;;16.87;100.00;102148.66;5068006;28;20033;-59
2022/07/15 03:38:26;;;;;;;12.57;3.50;;;;;;;16.83;100.00;102148.22;5071122;28;20044;-61
2022/07/15 03:40:52;;;;;;;8.80;3.33;;;;;;;17.11;100.00;102151.81;5073681;28;20274;-58
2022/07/15 03:43:17;;;;;;;11.75;3.20;;;;;;;16.89;100.00;102155.50;5071280;28;20064;-59
2022/07/15 03:45:46;;;;;;;9.87;2.93;;;;;;;16.69;100.00;102149.22;5072446;28;20040;-61
2022/07/15 03:48:11;;;;;;;14.40;4.00;;;;;;;17.01;100.00;102158.44;5071362;28;20289;-64
2022/07/15 03:50:37;;;;;;;8.70;3.03;;;;;;;17.05;100.00;102153.47;5072249;28;20033;-60
2022/07/15 03:53:03;;;;;;;10.00;3.30;;;;;;;17.13;100.00;102161.38;5073444;28;20040;-61
2022/07/15 03:55:28;;;;;;;17.67;3.27;;;;;;;17.30;100.00;102161.81;5072319;28;20282;-60
2022/07/15 03:57:56;;;;;;;10.67;3.77;;;;;;;17.13;100.00;102166.75;5073162;28;20032;-59
2022/07/15 04:00:22;;;;;;;13.67;3.87;;;;;;;17.16;100.00;102163.66;5072994;28;20277;-59
2022/07/15 04:02:48;;;;;;;11.43;3.47;;;;;;;16.99;100.00;102176.75;5070824;28;20033;-60
2022/07/15 04:05:13;;;;;;;18.73;5.95;;;;;;;17.00;100.00;102170.28;5071787;28;20121;-59
2022/07/15 04:07:39;;;;;;;12.13;5.72;;;;;;;16.91;100.00;102179.63;5071524;28;20033;-59
2022/07/15 04:10:06;;;;;;;19.55;5.35;;;;;;;17.03;100.00;102171.75;5068608;28;20037;-59
2022/07/15 04:12:31;;;;;;;;;;;;;;;17.06;100.00;102180.28;5072133;28;20036;-60
2022/07/15 04:14:57;;;;;;;23.03;8.93;;;;;;;16.91;100.00;102179.63;5070767;28;19912;-60
2022/07/15 04:17:23;;;;;;;22.97;8.60;;;;;;;17.05;100.00;102186.72;5071215;28;20097;-61
2022/07/15 04:19:48;;;;;;;13.80;7.17;;;;;;;17.18;100.00;102172.41;5076865;28;20308;-61
2022/07/15 04:22:13;;;;;;;20.83;10.40;;;;;;;17.25;100.00;102177.78;5073549;28;20107;-59
2022/07/15 04:24:44;;;;;;;25.63;9.17;;;;;;;17.40;100.00;102184.88;5069818;28;20025;-59
2022/07/15 04:27:12;;;;;;;17.33;8.23;;;;;;;17.52;100.00;102183.19;5055711;28;20738;-60
2022/07/15 04:29:38;;;;;;;19.42;8.40;;;;;;;17.57;100.00;102179.88;5076079;28;20339;-60
2022/07/15 04:32:07;;;;;;;11.17;3.87;;;;;;;17.34;100.00;102175.72;5067771;28;20033;-60
2022/07/15 04:34:37;;;;;;;19.27;7.50;;;;;;;17.34;100.00;102179.28;5067970;28;20276;-58
2022/07/15 04:37:02;;;;;;;23.17;10.90;;;;;;;17.56;100.00;102181.75;5070045;28;20269;-61
2022/07/15 04:39:29;;;;;;;;;;;;;;;17.54;100.00;102185.69;5068708;28;20043;-60
2022/07/15 04:41:56;;;;;;;19.02;7.55;;;;;;;17.44;100.00;102186.13;5074544;28;19939;-60
2022/07/15 04:44:22;;;;;;;14.43;5.97;;;;;;;17.63;100.00;102187.97;5070982;28;20029;-60
2022/07/15 04:46:48;;;;;;;14.67;3.40;;;;;;;17.47;100.00;102189.25;5074858;28;20061;-59
2022/07/15 04:52:18;;;;;;;11.13;3.57;;;;;;;17.55;100.00;102185.50;5072943;28;20261;-60
2022/07/15 04:54:47;;;;;;;23.33;10.10;;;;;;;17.86;100.00;102186.69;5074035;28;20325;-60
2022/07/15 04:57:13;;;;;;;18.13;7.57;;;;;;;17.92;100.00;102193.13;5073886;28;20270;-61
2022/07/15 04:59:39;;;;;;;;;;;;;;;17.85;100.00;102193.16;5074425;28;20036;-59
2022/07/15 05:02:09;;;;;;;12.30;3.10;;;;;;;17.91;100.00;102194.19;5069395;28;19917;-60
2022/07/15 05:04:43;;;;;;;9.43;2.57;;;;;;;17.71;100.00;102191.50;5072510;28;20261;-60
2022/07/15 05:07:10;;;;;;;7.37;2.93;;;;;;;17.79;100.00;102194.00;5072775;28;20269;-60
2022/07/15 05:09:36;;;;;;;12.83;3.30;;;;;;;17.84;100.00;102202.31;5072097;28;20304;-59
2022/07/15 05:12:02;;;;;;;13.27;2.70;;;;;;;17.90;100.00;102192.53;5073836;28;20320;-59
2022/07/15 05:14:32;;;;;;;16.20;2.53;;;;;;;17.79;100.00;102196.72;5081246;28;20095;-60
2022/07/15 05:17:00;;;;;;;16.10;3.47;;;;;;;17.76;100.00;102197.09;5074328;28;20459;-60
2022/07/15 05:19:26;;;;;;;;;;;;;;;17.89;100.00;102196.28;5076671;28;20273;-61
2022/07/15 05:21:52;;;;;;;11.20;2.40;;;;;;;17.80;100.00;102192.97;5080308;28;19923;-60
2022/07/15 05:24:19;;;;;;;10.47;2.20;;;;;;;18.00;100.00;102194.78;5072605;28;20303;-61
2022/07/15 05:26:46;;;;;;;10.63;2.50;;;;;;;17.63;100.00;102197.94;5087454;28;20277;-60
2022/07/15 05:29:13;;;;;;;;;;;;;;;17.33;100.00;102191.13;5072134;28;20285;-60
2022/07/15 05:31:40;;;;;;;14.00;2.38;;;;;;;17.42;100.00;102194.47;5071570;28;19955;-60
2022/07/15 05:34:06;;;;;;;8.60;2.23;;;;;;;17.61;100.00;102194.63;5073880;28;20126;-60
2022/07/15 05:36:34;;;;;;;5.87;2.20;;;;;;;17.56;100.00;102191.72;5077872;28;20272;-60
2022/07/15 05:39:00;;;;;;;8.98;1.80;;;;;;;17.72;100.00;102195.88;5077063;28;20266;-60
2022/07/15 05:41:25;;;;;;;8.15;2.10;;;;;;;17.66;100.00;102197.56;5073048;28;20029;-60
2022/07/15 05:43:52;;;;;;;5.07;1.60;;;;;;;17.83;100.00;102191.69;5075375;28;20113;-59
2022/07/15 05:46:17;;;;;;;;;;;;;;;17.94;100.00;102199.16;5090759;28;20032;-60
2022/07/15 05:48:49;;;;;;;7.17;1.70;;;;;;;17.98;100.00;102200.41;5073069;28;19962;-60
2022/07/15 05:51:15;;;;;;;8.75;1.95;;;;;;;18.16;100.00;102197.03;5076152;28;20285;-60
2022/07/15 05:53:42;;;;;;;5.83;1.83;;;;;;;18.51;100.00;102195.06;5078754;28;20033;-59
2022/07/15 05:56:07;;;;;;;5.77;1.60;;;;;;;18.66;100.00;102190.16;5072689;28;20278;-60
2022/07/15 05:58:33;;;;;;;11.55;2.72;;;;;;;18.53;100.00;102203.78;5066982;28;20535;-60
2022/07/15 06:00:59;;;;;;;7.25;1.50;;;;;;;18.39;100.00;102194.91;5074669;28;20041;-61
2022/07/15 06:03:32;;;;;;;6.77;1.87;;;;;;;18.67;100.00;102196.41;5075118;28;20032;-59
2022/07/15 06:05:58;;;;;;;8.10;1.60;;;;;;;18.48;100.00;102204.44;5074107;28;20277;-61
2022/07/15 06:08:24;;;;;;;5.03;1.25;;;;;;;18.76;100.00;102204.09;5056648;28;20321;-60
2022/07/15 06:10:50;;;;;;;8.52;1.50;;;;;;;18.88;100.00;102196.09;5079440;28;20029;-59
2022/07/15 06:13:20;;;;;;;5.43;1.70;;;;;;;18.96;100.00;102196.88;5074757;28;20057;-58
2022/07/15 06:15:46;;;;;;;5.50;1.37;;;;;;;18.99;100.00;102200.00;5077441;28;20266;-60
2022/07/15 06:18:18;;;;;;;6.43;1.70;;;;;;;19.09;100.00;102198.69;5075520;28;20300;-60
2022/07/15 06:20:43;;;;;;;5.45;1.48;;;;;;;18.92;100.00;102196.50;5068471;28;20266;-60
2022/07/15 06:23:09;;;;;;;10.45;1.70;;;;;;;18.84;100.00;102194.88;5069241;28;20033;-59
2022/07/15 06:25:35;;;;;;;;;;;;;;;18.87;100.00;102196.28;5069901;28;20029;-60
2022/07/15 06:28:01;;;;;;;11.80;2.23;;;;;;;18.68;100.00;102198.91;5074552;28;19927;-60
2022/07/15 06:30:27;;;;;;;8.52;1.42;;;;;;;18.85;100.00;102198.41;5073686;28;20029;-61
2022/07/15 06:32:52;;;;;;;7.53;1.85;;;;;;;19.04;100.00;102199.38;5071642;28;20044;-64
2022/07/15 06:35:18;;;;;;;8.93;2.10;;;;;;;18.75;100.00;102201.56;5066478;28;20123;-61
2022/07/15 06:37:44;;;;;;;4.43;1.55;;;;;;;19.01;100.00;102203.34;5068708;28;20029;-60
2022/07/15 06:40:10;;;;;;;10.23;1.67;;;;;;;18.72;100.00;102204.72;5070118;28;20041;-60
2022/07/15 06:42:37;;;;;;;7.13;1.60;;;;;;;18.33;100.00;102204.69;5070574;28;20041;-59
2022/07/15 06:45:06;;;;;;;5.80;1.77;;;;;;;18.65;100.00;102203.94;5073287;28;20519;-60
2022/07/15 06:47:32;;;;;;;8.55;2.22;;;;;;;18.81;100.00;102205.31;5068039;28;20338;-60
2022/07/15 06:50:00;;;;;;;7.40;1.50;;;;;;;18.97;100.00;102209.38;5081168;28;20064;-60
2022/07/15 06:52:26;;;;;;;4.87;1.80;;;;;;;19.10;100.00;102209.31;5067692;28;20080;-59
2022/07/15 06:54:53;;;;;;;4.03;1.67;;;;;;;18.96;100.00;102208.56;5069645;28;20263;-60
2022/07/15 06:57:19;;;;;;;4.95;1.85;;;;;;;19.06;100.00;102210.81;5070664;28;20291;-59
2022/07/15 06:59:45;;;;;;;9.03;1.83;;;;;;;19.26;100.00;102215.25;5066054;28;20106;-59
2022/07/15 07:02:10;;;;;;;6.35;1.85;;;;;;;19.12;100.00;102214.50;5072088;28;20024;-59
2022/07/15 07:04:36;;;;;;;6.60;2.90;;;;;;;19.52;100.00;102208.78;5070856;28;20032;-61
2022/07/15 07:07:02;;;;;;;10.25;2.10;;;;;;;19.82;100.00;102213.50;5079483;28;20032;-61
2022/07/15 07:09:28;;;;;;;94.55;45.13;;;;;;;19.91;100.00;102214.91;5071114;28;20033;-61
2022/07/15 07:11:53;;;;;;;88.85;43.70;;;;;;;19.53;100.00;102213.16;5075787;28;20036;-60
2022/07/15 07:14:19;;;;;;;11.27;4.03;;;;;;;19.21;100.00;102224.06;5078672;28;20060;-60
2022/07/15 07:16:45;;;;;;;12.27;4.50;;;;;;;19.56;100.00;102215.41;5073608;28;20281;-62
2022/07/15 07:19:11;;;;;;;10.57;3.47;;;;;;;19.78;100.00;102226.69;5069513;28;20657;-60
2022/07/15 07:21:37;;;;;;;34.47;10.65;;;;;;;19.76;100.00;102230.69;5066768;28;20104;-61
2022/07/15 07:24:02;;;;;;;40.45;16.05;;;;;;;19.85;100.00;102233.94;5069223;28;20109;-60
2022/07/15 07:26:29;;;;;;;89.47;42.03;;;;;;;19.91;100.00;102238.50;5075096;28;20037;-60
2022/07/15 07:28:54;;;;;;;16.02;6.03;;;;;;;19.78;100.00;102231.28;5077188;28;20062;-60
2022/07/15 07:31:25;;;;;;;47.05;16.98;;;;;;;20.00;100.00;102231.75;5076907;28;20033;-60
2022/07/15 07:33:52;;;;;;;260.47;118.70;;;;;;;20.25;100.00;102230.00;5073878;28;20089;-61
2022/07/15 07:36:17;;;;;;;;;;;;;;;20.08;100.00;102230.63;5070261;28;20032;-61
2022/07/15 07:38:42;;;;;;;117.87;52.13;;;;;;;20.12;100.00;102228.25;5078663;28;19912;-59
2022/07/15 07:41:08;;;;;;;106.38;50.92;;;;;;;20.24;100.00;102225.63;5067893;28;20029;-60
2022/07/15 07:43:34;;;;;;;30.40;14.87;;;;;;;20.37;100.00;102225.47;5066935;28;20075;-61
2022/07/15 07:46:00;;;;;;;21.63;8.07;;;;;;;20.51;100.00;102233.44;5071231;28;20292;-61
2022/07/15 07:48:26;;;;;;;21.65;7.38;;;;;;;20.58;100.00;102236.91;5069526;28;20033;-61
2022/07/15 07:50:53;;;;;;;11.30;4.00;;;;;;;20.63;100.00;102237.88;5070422;28;20066;-61
2022/07/15 07:53:18;;;;;;;7.93;2.83;;;;;;;20.66;100.00;102236.59;5072337;28;20029;-60
2022/07/15 07:55:43;;;;;;;8.93;2.95;;;;;;;20.66;100.00;102239.31;5069253;28;20039;-60
2022/07/15 07:58:09;;;;;;;11.02;3.63;;;;;;;20.69;100.00;102241.56;5074560;28;20110;-59
2022/07/15 08:00:36;;;;;;;14.13;2.28;;;;;;;20.32;100.00;102238.91;5074617;28;20116;-61
2022/07/15 08:03:01;;;;;;;6.50;1.60;;;;;;;20.73;100.00;102239.22;5075910;28;20079;-63
2022/07/15 08:05:28;;;;;;;6.82;1.60;;;;;;;20.61;100.00;102241.91;5072700;28;20037;-62
2022/07/15 08:08:11;;;;;;;9.88;2.05;;;;;;;20.92;100.00;102248.19;5074035;28;20047;-60
2022/07/15 08:10:36;;;;;;;6.70;1.13;;;;;;;20.91;100.00;102243.81;5072198;28;20040;-61
2022/07/15 08:13:02;;;;;;;3.75;1.27;;;;;;;20.47;100.00;102242.06;5064209;28;20025;-60
2022/07/15 08:15:28;;;;;;;8.48;2.63;;;;;;;20.88;100.00;102247.00;5071671;28;20037;-60
2022/07/15 08:17:53;;;;;;;;;;;;;;;20.78;100.00;102247.53;5068254;28;20029;-60
2022/07/15 08:20:19;;;;;;;17.77;2.90;;;;;;;20.87;100.00;102239.91;5070067;28;19917;-59
2022/07/15 08:22:45;;;;;;;15.15;2.85;;;;;;;21.12;100.00;102226.16;5065250;28;20037;-60
2022/07/15 08:25:11;;;;;;;6.88;1.38;;;;;;;21.27;100.00;102227.59;5072793;28;20041;-60
2022/07/15 08:27:36;;;;;;;5.80;1.73;;;;;;;21.24;100.00;102234.34;5070035;28;20067;-59
2022/07/15 08:30:02;;;;;;;4.43;1.20;;;;;;;21.22;100.00;102225.59;5072530;28;20080;-61
2022/07/15 08:32:28;;;;;;;7.30;1.42;;;;;;;20.95;100.00;102238.75;5070214;28;20159;-60
2022/07/15 08:34:54;;;;;;;8.63;1.35;;;;;;;21.51;100.00;102233.06;5071941;28;20033;-60
2022/07/15 08:37:19;;;;;;;3.80;0.82;;;;;;;21.06;100.00;102227.91;5069410;28;20067;-59
2022/07/15 08:39:45;;;;;;;5.82;1.73;;;;;;;20.93;100.00;102241.69;5070321;28;20033;-59
2022/07/15 08:42:10;;;;;;;5.23;1.87;;;;;;;20.90;100.00;102234.00;5072751;28;20056;-60
2022/07/15 08:44:35;;;;;;;8.15;1.38;;;;;;;21.02;100.00;102226.72;5064221;28;20356;-60
2022/07/15 08:47:04;;;;;;;5.18;1.38;;;;;;;20.89;100.00;102237.78;5062163;28;20059;-60
2022/07/15 08:49:31;;;;;;;21.37;5.47;;;;;;;21.19;100.00;102236.91;5067464;28;20060;-61
2022/07/15 08:51:59;;;;;;;12.53;2.83;;;;;;;21.06;100.00;102233.34;5062568;28;20100;-59
2022/07/15 08:54:25;;;;;;;25.30;13.00;;;;;;;21.35;100.00;102236.25;5065869;28;20033;-61
2022/07/15 08:56:50;;;;;;;16.70;7.67;;;;;;;21.72;100.00;102240.69;5064849;28;20033;-61
2022/07/15 08:59:17;;;;;;;175.98;86.18;;;;;;;22.09;100.00;102234.13;5064293;28;20036;-62
2022/07/15 09:01:44;;;;;;;;;;;;;;;22.23;100.00;102231.16;5070074;28;20037;-61
2022/07/15 09:04:10;;;;;;;6.93;2.30;;;;;;;22.34;100.00;102235.72;5065240;28;19912;-60
2022/07/15 09:06:38;;;;;;;5.90;1.13;;;;;;;22.10;100.00;102235.78;5061420;28;20040;-62
2022/07/15 09:09:31;;;;;;;16.87;7.93;;;;;;;22.22;100.00;102233.03;5062913;28;20033;-60
2022/07/15 09:12:01;;;;;;;9.73;3.77;;;;;;;22.14;100.00;102236.97;5063451;28;20128;-60
2022/07/15 09:14:28;;;;;;;15.97;5.30;;;;;;;22.11;100.00;102226.53;5065144;28;20099;-61
2022/07/15 09:17:20;;;;;;;7.00;1.73;;;;;;;21.76;100.00;102224.69;5064124;28;20044;-60
2022/07/15 09:20:04;;;;;;;6.00;2.47;;;;;;;21.78;100.00;102225.28;5062451;28;20060;-60
2022/07/15 09:22:53;;;;;;;9.37;2.97;;;;;;;22.29;100.00;102224.72;5063083;28;20052;-60
2022/07/15 09:25:20;;;;;;;8.17;1.90;;;;;;;22.39;100.00;102222.22;5062592;28;20033;-60
2022/07/15 09:27:47;;;;;;;5.90;2.23;;;;;;;22.60;100.00;102225.38;5065250;28;20029;-60
2022/07/15 09:33:35;;;;;;;5.27;1.20;;;;;;;23.26;100.00;102219.47;5063712;28;20103;-60
2022/07/15 09:36:12;;;;;;;5.30;1.33;;;;;;;23.77;100.00;102224.88;5070344;28;20043;-61
2022/07/15 09:38:44;;;;;;;8.53;2.23;;;;;;;24.27;100.00;102216.00;5072927;28;20093;-59
2022/07/15 09:41:11;;;;;;;4.93;1.50;;;;;;;24.44;100.00;102232.31;5076569;28;20110;-59
2022/07/15 09:43:46;;;;;;;5.20;1.40;;;;;;;23.92;100.00;102221.53;5079118;28;20052;-60
2022/07/15 09:46:12;;;;;;;8.43;1.30;;;;;;;23.52;100.00;102228.06;5065286;28;20060;-59
2022/07/15 09:48:42;;;;;;;6.50;1.15;;;;;;;24.18;100.00;102219.16;5066236;28;20033;-59
2022/07/15 09:51:09;;;;;;;2.27;1.10;;;;;;;24.56;100.00;102218.50;5067048;28;20727;-61
2022/07/15 09:53:35;;;;;;;6.30;1.10;;;;;;;25.33;98.17;102230.19;5072140;28;20040;-61
2022/07/15 09:56:03;;;;;;;6.97;1.07;;;;;;;25.61;93.58;102222.75;5073587;28;20025;-59
2022/07/15 09:58:29;;;;;;;7.07;1.10;;;;;;;25.42;97.42;102235.19;5066388;28;20047;-60
2022/07/15 10:00:55;;;;;;;4.10;0.90;;;;;;;26.15;91.79;102223.56;5070298;28;20029;-61
2022/07/15 10:03:23;;;;;;;5.60;1.30;;;;;;;27.07;87.25;102237.00;5067658;28;20037;-59
2022/07/15 10:05:55;;;;;;;7.50;1.52;;;;;;;26.32;89.65;102220.63;5066628;28;20033;-60
2022/07/15 10:08:21;;;;;;;5.82;1.20;;;;;;;26.95;88.64;102232.56;5074535;28;20044;-59
2022/07/15 10:10:51;;;;;;;5.68;1.00;;;;;;;28.00;74.88;102223.94;5077770;28;20037;-60
2022/07/15 10:13:53;;;;;;;3.25;0.73;;;;;;;29.02;74.02;102222.84;5076235;28;20096;-60
2022/07/15 10:16:40;;;;;;;5.50;1.00;;;;;;;29.56;67.01;102229.25;5071657;28;20043;-59
2022/07/15 10:19:16;;;;;;;2.80;0.82;;;;;;;29.38;64.42;102233.50;5074486;28;20029;-60
2022/07/15 10:21:41;;;;;;;3.17;0.90;;;;;;;28.08;67.07;102224.47;5072217;28;20033;-59
2022/07/15 10:24:25;;;;;;;3.80;1.02;;;;;;;26.88;75.54;102219.16;5070766;28;20041;-58
2022/07/15 10:26:53;;;;;;;5.35;1.10;;;;;;;26.67;80.26;102218.25;5067975;28;20017;-59
2022/07/15 10:29:19;;;;;;;5.60;1.08;;;;;;;27.68;78.95;102219.66;5068530;28;20090;-59
2022/07/15 10:31:56;;;;;;;5.15;1.45;;;;;;;29.15;68.38;102218.59;5066932;28;20040;-60
2022/07/15 10:34:21;;;;;;;3.67;0.70;;;;;;;30.30;57.79;102216.25;5071387;28;20071;-59
2022/07/15 10:36:47;;;;;;;3.30;0.95;;;;;;;31.08;56.73;102213.13;5065074;28;20039;-58
2022/07/15 10:39:21;;;;;;;3.72;0.77;;;;;;;31.52;53.58;102219.25;5067562;28;20087;-59
2022/07/15 10:41:58;;;;;;;4.78;1.00;;;;;;;31.11;53.89;102209.75;5066862;28;20031;-59
2022/07/15 10:44:32;;;;;;;4.65;0.80;;;;;;;29.97;57.97;102207.81;5066446;28;21309;-60
2022/07/15 10:47:19;;;;;;;4.55;0.45;;;;;;;29.51;56.83;102200.91;5067678;28;20029;-59
2022/07/15 10:49:47;;;;;;;6.53;1.10;;;;;;;29.39;55.72;102201.28;5067524;28;20068;-60
2022/07/15 10:52:14;;;;;;;2.78;0.60;;;;;;;27.95;63.94;102190.97;5063778;28;20041;-59
2022/07/15 10:54:45;;;;;;;4.38;0.68;;;;;;;29.11;59.19;102195.50;5067281;28;20087;-60
2022/07/15 10:57:13;;;;;;;3.30;0.65;;;;;;;28.83;62.16;102190.50;5067310;28;20025;-59
2022/07/15 11:00:19;;;;;;;3.55;1.08;;;;;;;30.27;56.52;102186.50;5064560;28;20036;-60
2022/07/15 11:03:03;;;;;;;4.35;0.82;;;;;;;29.32;54.93;102187.84;5065804;28;20052;-59
2022/07/15 11:05:29;;;;;;;4.43;0.60;;;;;;;27.86;60.46;102179.72;5071166;28;20040;-60
2022/07/15 11:07:54;;;;;;;2.50;0.80;;;;;;;27.59;66.17;102182.88;5069868;28;20400;-58
2022/07/15 11:10:21;;;;;;;4.63;0.60;;;;;;;28.80;58.51;102184.72;5067787;28;20032;-59
2022/07/15 11:12:50;;;;;;;5.53;0.85;;;;;;;29.71;55.43;102188.81;5062179;28;20029;-59
2022/07/15 11:15:17;;;;;;;2.80;0.52;;;;;;;31.32;50.74;102190.06;5069666;28;20063;-60
2022/07/15 11:17:46;;;;;;;8.13;1.73;;;;;;;32.49;45.66;102187.09;5066541;28;20367;-59
2022/07/15 11:20:20;;;;;;;2.67;0.60;;;;;;;31.40;47.59;102180.25;5067566;28;20029;-58
2022/07/15 11:22:49;;;;;;;3.72;0.70;;;;;;;30.13;49.88;102169.88;5064065;28;20064;-58
2022/07/15 11:25:27;;;;;;;2.85;0.60;;;;;;;29.09;55.33;102164.69;5065151;28;20033;-59
2022/07/15 11:28:01;;;;;;;2.42;0.82;;;;;;;28.54;54.83;102166.47;5063489;28;20033;-60
2022/07/15 11:30:33;;;;;;;3.90;1.00;;;;;;;28.58;58.13;102163.94;5068188;28;20044;-58